createdAt,value
2019-01-13T00:00:19.545Z,12.00
2019-01-13T00:01:19.515Z,12.00
2019-01-13T00:02:19.556Z,12.00
2019-01-13T00:03:19.776Z,12.00
2019-01-13T00:04:19.522Z,8.00
2019-01-13T00:05:19.473Z,12.00
2019-01-13T00:06:19.464Z,12.00
2019-01-13T00:07:19.457Z,12.00
2019-01-13T00:08:19.441Z,12.00
2019-01-13T00:09:19.431Z,12.00
2019-01-13T00:10:19.460Z,8.00
2019-01-13T00:11:19.414Z,12.00
2019-01-13T00:12:19.399Z,12.00
2019-01-13T00:13:19.392Z,12.00
2019-01-13T00:14:19.379Z,12.00
2019-01-13T00:15:19.887Z,12.00
2019-01-13T00:16:20.133Z,12.00
2019-01-13T00:17:19.418Z,12.00
2019-01-13T00:18:19.339Z,12.00
2019-01-13T00:19:19.329Z,12.00
2019-01-13T00:20:19.319Z,12.00
2019-01-13T00:21:19.308Z,12.00
2019-01-13T00:22:19.333Z,12.00
2019-01-13T00:23:19.292Z,12.00
2019-01-13T00:24:19.294Z,12.00
2019-01-13T00:25:19.266Z,12.00
2019-01-13T00:26:19.254Z,12.00
2019-01-13T00:27:19.533Z,12.00
2019-01-13T00:28:19.288Z,12.00
2019-01-13T00:29:19.231Z,12.00
2019-01-13T00:30:19.747Z,12.00
2019-01-13T00:31:19.199Z,12.00
2019-01-13T00:32:19.193Z,12.00
2019-01-13T00:33:19.196Z,12.00
2019-01-13T00:34:19.229Z,12.00
2019-01-13T00:35:19.175Z,12.00
2019-01-13T00:36:19.147Z,12.00
2019-01-13T00:37:19.138Z,12.00
2019-01-13T00:38:19.126Z,12.00
2019-01-13T00:39:22.129Z,12.00
2019-01-13T00:40:20.219Z,12.00
2019-01-13T00:41:19.609Z,12.00
2019-01-13T00:42:20.133Z,12.00
2019-01-13T00:43:19.086Z,12.00
2019-01-13T00:44:19.063Z,12.00
2019-01-13T00:45:19.064Z,12.00
2019-01-13T00:46:19.074Z,12.00
2019-01-13T00:47:19.319Z,12.00
2019-01-13T00:48:19.603Z,12.00
2019-01-13T00:49:19.012Z,12.00
2019-01-13T00:50:19.000Z,12.00
2019-01-13T00:51:18.991Z,12.00
2019-01-13T00:52:19.024Z,12.00
2019-01-13T00:53:18.981Z,12.00
2019-01-13T00:54:19.264Z,12.00
2019-01-13T00:55:18.961Z,12.00
2019-01-13T00:56:19.604Z,12.00
2019-01-13T00:57:18.927Z,12.00
2019-01-13T00:58:18.954Z,12.00
2019-01-13T00:59:18.908Z,12.00
2019-01-13T01:00:26.204Z,12.00
2019-01-13T01:01:19.884Z,12.00
2019-01-13T01:02:18.880Z,12.00
2019-01-13T01:03:18.866Z,12.00
2019-01-13T01:04:18.890Z,12.00
2019-01-13T01:05:18.844Z,12.00
2019-01-13T01:06:18.840Z,12.00
2019-01-13T01:07:19.107Z,12.00
2019-01-13T01:08:18.818Z,12.00
2019-01-13T01:09:18.804Z,12.00
2019-01-13T01:10:18.875Z,12.00
2019-01-13T01:11:18.783Z,12.00
2019-01-13T01:12:18.770Z,12.00
2019-01-13T01:13:18.760Z,12.00
2019-01-13T01:14:19.031Z,12.00
2019-01-13T01:15:18.740Z,12.00
2019-01-13T01:16:18.769Z,12.00
2019-01-13T01:17:18.719Z,12.00
2019-01-13T01:18:18.710Z,12.00
2019-01-13T01:19:18.698Z,12.00
2019-01-13T01:20:18.687Z,12.00
2019-01-13T01:21:18.678Z,12.00
2019-01-13T01:22:18.709Z,12.00
2019-01-13T01:23:18.656Z,12.00
2019-01-13T01:24:18.647Z,12.00
2019-01-13T01:25:18.642Z,12.00
2019-01-13T01:26:18.626Z,12.00
2019-01-13T01:27:18.623Z,12.00
2019-01-13T01:28:18.676Z,12.00
2019-01-13T01:29:18.594Z,12.00
2019-01-13T01:30:18.584Z,12.00
2019-01-13T01:31:18.573Z,12.00
2019-01-13T01:32:18.990Z,12.00
2019-01-13T01:33:25.712Z,12.00
2019-01-13T01:34:19.580Z,12.00
2019-01-13T01:35:18.541Z,12.00
2019-01-13T01:36:18.521Z,12.00
2019-01-13T01:37:18.513Z,12.00
2019-01-13T01:38:18.501Z,12.00
2019-01-13T01:39:18.772Z,12.00
2019-01-13T01:40:18.519Z,12.00
2019-01-13T01:41:18.472Z,12.00
2019-01-13T01:42:18.460Z,12.00
2019-01-13T01:43:18.456Z,12.00
2019-01-13T01:44:18.442Z,12.00
2019-01-13T01:45:18.429Z,12.00
2019-01-13T01:46:19.084Z,12.00
2019-01-13T01:47:18.408Z,12.00
2019-01-13T01:48:18.614Z,12.00
2019-01-13T01:49:18.388Z,12.00
2019-01-13T01:50:18.377Z,12.00
2019-01-13T01:51:18.370Z,12.00
2019-01-13T01:52:18.391Z,12.00
2019-01-13T01:53:18.626Z,12.00
2019-01-13T01:54:18.344Z,12.00
2019-01-13T01:55:18.324Z,12.00
2019-01-13T01:56:18.317Z,12.00
2019-01-13T01:57:18.303Z,12.00
2019-01-13T01:58:18.328Z,12.00
2019-01-13T01:59:18.285Z,12.00
2019-01-13T02:00:18.563Z,12.00
2019-01-13T02:01:18.263Z,12.00
2019-01-13T02:02:18.252Z,12.00
2019-01-13T02:03:18.242Z,12.00
2019-01-13T02:04:18.286Z,12.00
2019-01-13T02:05:18.243Z,12.00
2019-01-13T02:06:18.211Z,12.00
2019-01-13T02:07:18.479Z,12.00
2019-01-13T02:08:18.190Z,12.00
2019-01-13T02:09:18.178Z,12.00
2019-01-13T02:10:18.204Z,12.00
2019-01-13T02:11:18.160Z,12.00
2019-01-13T02:12:18.148Z,12.00
2019-01-13T02:13:18.136Z,12.00
2019-01-13T02:14:18.429Z,12.00
2019-01-13T02:15:18.117Z,12.00
2019-01-13T02:16:18.142Z,12.00
2019-01-13T02:17:18.095Z,12.00
2019-01-13T02:18:18.084Z,12.00
2019-01-13T02:19:18.072Z,12.00
2019-01-13T02:20:18.066Z,12.00
2019-01-13T02:21:18.335Z,12.00
2019-01-13T02:22:18.100Z,12.00
2019-01-13T02:23:18.032Z,12.00
2019-01-13T02:24:18.020Z,12.00
2019-01-13T02:25:18.010Z,12.00
2019-01-13T02:26:19.188Z,12.00
2019-01-13T02:27:17.990Z,12.00
2019-01-13T02:28:19.194Z,12.00
2019-01-13T02:29:18.589Z,12.00
2019-01-13T02:30:17.958Z,12.00
2019-01-13T02:31:17.951Z,12.00
2019-01-13T02:32:17.939Z,12.00
2019-01-13T02:33:17.926Z,12.00
2019-01-13T02:34:18.062Z,12.00
2019-01-13T02:35:18.210Z,12.00
2019-01-13T02:36:17.897Z,12.00
2019-01-13T02:37:17.886Z,12.00
2019-01-13T02:38:17.876Z,12.00
2019-01-13T02:39:17.865Z,12.00
2019-01-13T02:40:17.947Z,12.00
2019-01-13T02:41:17.842Z,12.00
2019-01-13T02:42:18.127Z,12.00
2019-01-13T02:43:17.823Z,12.00
2019-01-13T02:44:17.811Z,12.00
2019-01-13T02:45:17.802Z,12.00
2019-01-13T02:46:17.818Z,12.00
2019-01-13T02:47:17.785Z,12.00
2019-01-13T02:48:17.770Z,12.00
2019-01-13T02:49:18.044Z,12.00
2019-01-13T02:50:17.753Z,12.00
2019-01-13T02:51:17.740Z,12.00
2019-01-13T02:52:17.755Z,12.00
2019-01-13T02:53:17.723Z,12.00
2019-01-13T02:54:17.710Z,12.00
2019-01-13T02:55:17.698Z,12.00
2019-01-13T02:56:17.974Z,12.00
2019-01-13T02:57:17.689Z,12.00
2019-01-13T02:58:17.951Z,12.00
2019-01-13T02:59:17.662Z,12.00
2019-01-13T03:01:33.327Z,12.00
2019-01-13T03:02:33.279Z,12.00
2019-01-13T03:03:33.312Z,12.00
2019-01-13T03:04:33.266Z,12.00
2019-01-13T03:05:33.247Z,12.00
2019-01-13T03:06:33.243Z,12.00
2019-01-13T03:07:33.242Z,12.00
2019-01-13T03:08:33.215Z,12.00
2019-01-13T03:09:33.533Z,12.00
2019-01-13T03:10:33.205Z,12.00
2019-01-13T03:11:33.186Z,12.00
2019-01-13T03:12:33.174Z,12.00
2019-01-13T03:13:33.175Z,12.00
2019-01-13T03:14:33.152Z,12.00
2019-01-13T03:15:33.198Z,12.00
2019-01-13T03:16:33.155Z,12.00
2019-01-13T03:17:33.126Z,12.00
2019-01-13T03:18:33.112Z,12.00
2019-01-13T03:19:33.100Z,12.00
2019-01-13T03:20:33.092Z,12.00
2019-01-13T03:21:33.405Z,12.00
2019-01-13T03:22:33.086Z,12.00
2019-01-13T03:23:33.060Z,12.00
2019-01-13T03:24:33.049Z,12.00
2019-01-13T03:25:33.042Z,12.00
2019-01-13T03:26:33.027Z,12.00
2019-01-13T03:27:33.049Z,12.00
2019-01-13T03:28:34.291Z,12.00
2019-01-13T03:29:32.997Z,12.00
2019-01-13T03:30:33.025Z,12.00
2019-01-13T03:31:32.977Z,12.00
2019-01-13T03:32:32.975Z,12.00
2019-01-13T03:33:33.005Z,12.00
2019-01-13T03:34:32.945Z,12.00
2019-01-13T03:35:33.231Z,12.00
2019-01-13T03:36:32.922Z,12.00
2019-01-13T03:37:32.920Z,12.00
2019-01-13T03:38:32.904Z,12.00
2019-01-13T03:39:33.822Z,12.00
2019-01-13T03:40:32.879Z,12.00
2019-01-13T03:41:32.870Z,12.00
2019-01-13T03:42:33.170Z,12.00
2019-01-13T03:43:32.854Z,12.00
2019-01-13T03:44:33.511Z,12.00
2019-01-13T03:45:32.906Z,12.00
2019-01-13T03:46:32.819Z,12.00
2019-01-13T03:47:32.807Z,12.00
2019-01-13T03:48:32.796Z,12.00
2019-01-13T03:49:33.094Z,12.00
2019-01-13T03:50:32.783Z,12.00
2019-01-13T03:51:33.147Z,12.00
2019-01-13T03:52:32.757Z,12.00
2019-01-13T03:53:32.746Z,12.00
2019-01-13T03:54:32.733Z,12.00
2019-01-13T03:55:32.723Z,12.00
2019-01-13T03:56:33.011Z,12.00
2019-01-13T03:57:32.826Z,12.00
2019-01-13T03:58:32.691Z,12.00
2019-01-13T03:59:32.681Z,12.00
2019-01-13T04:00:32.671Z,12.00
2019-01-13T04:01:32.660Z,12.00
2019-01-13T04:02:32.657Z,12.00
2019-01-13T04:03:32.986Z,12.00
2019-01-13T04:04:32.628Z,12.00
2019-01-13T04:05:32.633Z,12.00
2019-01-13T04:06:32.608Z,12.00
2019-01-13T04:07:32.598Z,12.00
2019-01-13T04:08:32.588Z,12.00
2019-01-13T04:09:32.692Z,12.00
2019-01-13T04:10:32.844Z,12.00
2019-01-13T04:11:32.574Z,12.00
2019-01-13T04:12:32.553Z,12.00
2019-01-13T04:13:32.549Z,12.00
2019-01-13T04:14:32.523Z,12.00
2019-01-13T04:15:32.589Z,12.00
2019-01-13T04:16:32.502Z,12.00
2019-01-13T04:17:32.799Z,12.00
2019-01-13T04:18:32.481Z,12.00
2019-01-13T04:19:32.470Z,12.00
2019-01-13T04:20:32.460Z,12.00
2019-01-13T04:21:32.579Z,12.00
2019-01-13T04:22:32.440Z,12.00
2019-01-13T04:23:32.429Z,12.00
2019-01-13T04:24:32.424Z,12.00
2019-01-13T04:25:32.408Z,12.00
2019-01-13T04:26:32.411Z,12.00
2019-01-13T04:27:32.629Z,12.00
2019-01-13T04:28:32.376Z,12.00
2019-01-13T04:29:32.367Z,12.00
2019-01-13T04:30:32.635Z,12.00
2019-01-13T04:31:32.388Z,12.00
2019-01-13T04:32:32.347Z,12.00
2019-01-13T04:33:32.429Z,12.00
2019-01-13T04:34:32.317Z,12.00
2019-01-13T04:35:32.304Z,12.00
2019-01-13T04:36:32.295Z,12.00
2019-01-13T04:37:32.602Z,12.00
2019-01-13T04:38:32.276Z,12.00
2019-01-13T04:39:32.392Z,12.00
2019-01-13T04:40:32.256Z,12.00
2019-01-13T04:41:32.242Z,12.00
2019-01-13T04:42:32.234Z,12.00
2019-01-13T04:43:32.222Z,12.00
2019-01-13T04:44:32.505Z,12.00
2019-01-13T04:45:32.290Z,12.00
2019-01-13T04:46:32.191Z,12.00
2019-01-13T04:47:32.183Z,12.00
2019-01-13T04:48:32.168Z,12.00
2019-01-13T04:49:32.158Z,12.00
2019-01-13T04:50:32.151Z,12.00
2019-01-13T04:51:32.497Z,12.00
2019-01-13T04:52:32.148Z,12.00
2019-01-13T04:53:32.119Z,12.00
2019-01-13T04:54:32.105Z,12.00
2019-01-13T04:55:32.094Z,12.00
2019-01-13T04:56:32.090Z,12.00
2019-01-13T04:57:32.142Z,12.00
2019-01-13T04:58:32.346Z,12.00
2019-01-13T04:59:32.059Z,12.00
2019-01-13T05:00:32.046Z,12.00
2019-01-13T05:01:34.544Z,12.00
2019-01-13T05:02:32.022Z,12.00
2019-01-13T05:03:32.095Z,12.00
2019-01-13T05:04:32.000Z,12.00
2019-01-13T05:05:31.995Z,12.00
2019-01-13T05:06:31.981Z,12.00
2019-01-13T05:07:31.970Z,12.00
2019-01-13T05:08:31.959Z,12.00
2019-01-13T05:09:32.019Z,12.00
2019-01-13T05:10:31.941Z,12.00
2019-01-13T05:11:32.205Z,12.00
2019-01-13T05:12:31.917Z,12.00
2019-01-13T05:13:31.909Z,12.00
2019-01-13T05:14:31.897Z,12.00
2019-01-13T05:15:31.957Z,12.00
2019-01-13T05:16:31.876Z,12.00
2019-01-13T05:17:33.667Z,12.00
2019-01-13T05:18:32.130Z,12.00
2019-01-13T05:19:31.849Z,12.00
2019-01-13T05:20:31.836Z,12.00
2019-01-13T05:21:31.925Z,12.00
2019-01-13T05:22:31.820Z,12.00
2019-01-13T05:23:31.803Z,12.00
2019-01-13T05:24:31.792Z,12.00
2019-01-13T05:25:32.063Z,12.00
2019-01-13T05:26:31.773Z,12.00
2019-01-13T05:27:31.876Z,12.00
2019-01-13T05:28:31.758Z,12.00
2019-01-13T05:29:31.741Z,12.00
2019-01-13T05:30:31.729Z,12.00
2019-01-13T05:31:32.009Z,12.00
2019-01-13T05:32:31.710Z,12.00
2019-01-13T05:33:31.766Z,12.00
2019-01-13T05:34:31.689Z,12.00
2019-01-13T05:35:31.679Z,12.00
2019-01-13T05:36:31.668Z,12.00
2019-01-13T05:37:31.660Z,12.00
2019-01-13T05:38:31.666Z,12.00
2019-01-13T05:39:31.741Z,12.00
2019-01-13T05:40:31.630Z,12.00
2019-01-13T05:41:31.616Z,12.00
2019-01-13T05:42:31.612Z,12.00
2019-01-13T05:43:31.903Z,12.00
2019-01-13T05:44:31.585Z,12.00
2019-01-13T05:45:31.651Z,12.00
2019-01-13T05:46:31.566Z,12.00
2019-01-13T05:47:31.552Z,12.00
2019-01-13T05:48:31.544Z,12.00
2019-01-13T05:49:31.532Z,12.00
2019-01-13T05:50:31.524Z,12.00
2019-01-13T05:51:31.584Z,12.00
2019-01-13T05:52:31.501Z,12.00
2019-01-13T05:53:31.489Z,12.00
2019-01-13T05:54:31.482Z,12.00
2019-01-13T05:55:31.747Z,12.00
2019-01-13T05:56:31.460Z,12.00
2019-01-13T05:57:31.549Z,12.00
2019-01-13T05:58:31.440Z,12.00
2019-01-13T05:59:31.428Z,12.00
2019-01-13T06:00:31.417Z,8.00
2019-01-13T06:01:31.714Z,8.00
2019-01-13T06:02:31.396Z,8.00
2019-01-13T06:03:31.505Z,8.00
2019-01-13T06:04:31.377Z,8.00
2019-01-13T06:05:31.370Z,8.00
2019-01-13T06:06:31.354Z,8.00
2019-01-13T06:07:31.349Z,8.00
2019-01-13T06:08:31.611Z,8.00
2019-01-13T06:09:31.395Z,8.00
2019-01-13T06:10:31.315Z,12.00
2019-01-13T06:11:31.303Z,8.00
2019-01-13T06:12:31.291Z,8.00
2019-01-13T06:13:31.284Z,8.00
2019-01-13T06:14:31.269Z,8.00
2019-01-13T06:15:31.636Z,8.00
2019-01-13T06:16:31.251Z,8.00
2019-01-13T06:17:31.241Z,8.00
2019-01-13T06:18:31.228Z,8.00
2019-01-13T06:19:31.220Z,8.00
2019-01-13T06:20:31.212Z,8.00
2019-01-13T06:21:31.409Z,12.00
2019-01-13T06:22:31.465Z,12.00
2019-01-13T06:23:31.176Z,12.00
2019-01-13T06:24:31.167Z,8.00
2019-01-13T06:25:31.160Z,12.00
2019-01-13T06:26:31.147Z,8.00
2019-01-13T06:27:31.203Z,12.00
2019-01-13T06:28:31.129Z,12.00
2019-01-13T06:29:31.421Z,12.00
2019-01-13T06:30:31.103Z,8.00
2019-01-13T06:31:31.093Z,12.00
2019-01-13T06:32:31.083Z,8.00
2019-01-13T06:33:31.166Z,8.00
2019-01-13T06:34:31.069Z,12.00
2019-01-13T06:35:31.064Z,12.00
2019-01-13T06:36:31.350Z,8.00
2019-01-13T06:37:31.039Z,8.00
2019-01-13T06:38:31.020Z,8.00
2019-01-13T06:39:31.087Z,8.00
2019-01-13T06:40:31.003Z,8.00
2019-01-13T06:41:30.987Z,8.00
2019-01-13T06:42:30.981Z,8.00
2019-01-13T06:43:31.260Z,8.00
2019-01-13T06:44:30.956Z,8.00
2019-01-13T06:45:31.067Z,8.00
2019-01-13T06:46:30.944Z,8.00
2019-01-13T06:47:30.931Z,8.00
2019-01-13T06:48:30.918Z,8.00
2019-01-13T06:49:30.903Z,8.00
2019-01-13T06:50:31.184Z,8.00
2019-01-13T06:51:31.138Z,8.00
2019-01-13T06:52:30.883Z,12.00
2019-01-13T06:53:30.862Z,12.00
2019-01-13T06:54:30.852Z,12.00
2019-01-13T06:55:30.840Z,12.00
2019-01-13T06:56:30.831Z,12.00
2019-01-13T06:57:31.176Z,12.00
2019-01-13T06:58:30.811Z,12.00
2019-01-13T06:59:30.799Z,12.00
2019-01-13T07:00:31.967Z,12.00
2019-01-13T07:01:30.778Z,12.00
2019-01-13T07:02:30.778Z,12.00
2019-01-13T07:03:30.829Z,12.00
2019-01-13T07:04:31.036Z,12.00
2019-01-13T07:05:30.737Z,12.00
2019-01-13T07:06:30.732Z,12.00
2019-01-13T07:07:30.717Z,12.00
2019-01-13T07:08:30.706Z,16.00
2019-01-13T07:09:30.794Z,12.00
2019-01-13T07:10:30.686Z,12.00
2019-01-13T07:11:30.953Z,12.00
2019-01-13T07:12:30.664Z,16.00
2019-01-13T07:13:30.653Z,16.00
2019-01-13T07:14:30.645Z,16.00
2019-01-13T07:15:30.757Z,16.00
2019-01-13T07:16:30.625Z,16.00
2019-01-13T07:17:30.611Z,16.00
2019-01-13T07:18:30.879Z,24.00
2019-01-13T07:19:30.603Z,24.00
2019-01-13T07:20:30.579Z,24.00
2019-01-13T07:21:30.646Z,24.00
2019-01-13T07:22:30.561Z,28.00
2019-01-13T07:23:30.558Z,24.00
2019-01-13T07:24:30.539Z,28.00
2019-01-13T07:25:30.809Z,28.00
2019-01-13T07:26:30.517Z,16.00
2019-01-13T07:27:30.890Z,20.00
2019-01-13T07:28:30.498Z,20.00
2019-01-13T07:29:30.488Z,20.00
2019-01-13T07:30:30.475Z,20.00
2019-01-13T07:31:30.758Z,20.00
2019-01-13T07:32:30.457Z,20.00
2019-01-13T07:33:30.515Z,24.00
2019-01-13T07:34:30.433Z,28.00
2019-01-13T07:35:30.441Z,36.00
2019-01-13T07:36:30.412Z,36.00
2019-01-13T07:37:30.741Z,28.00
2019-01-13T07:38:30.431Z,28.00
2019-01-13T07:39:30.416Z,32.00
2019-01-13T07:40:30.370Z,28.00
2019-01-13T07:41:30.430Z,28.00
2019-01-13T07:42:30.367Z,28.00
2019-01-13T07:43:30.339Z,32.00
2019-01-13T07:44:30.332Z,32.00
2019-01-13T07:45:30.537Z,28.00
2019-01-13T07:46:30.312Z,32.00
2019-01-13T07:47:30.298Z,40.00
2019-01-13T07:48:30.288Z,48.00
2019-01-13T07:49:30.571Z,60.00
2019-01-13T07:50:30.266Z,52.00
2019-01-13T07:51:30.297Z,52.00
2019-01-13T07:52:30.245Z,48.00
2019-01-13T07:53:30.235Z,44.00
2019-01-13T07:54:30.225Z,52.00
2019-01-13T07:55:30.215Z,48.00
2019-01-13T07:56:30.511Z,56.00
2019-01-13T07:57:30.240Z,60.00
2019-01-13T07:58:30.182Z,72.00
2019-01-13T07:59:30.173Z,72.00
2019-01-13T08:00:30.163Z,68.00
2019-01-13T08:01:30.151Z,64.00
2019-01-13T08:02:30.140Z,72.00
2019-01-13T08:03:30.459Z,96.00
2019-01-13T08:04:30.128Z,100.00
2019-01-13T08:05:30.116Z,104.00
2019-01-13T08:06:31.007Z,136.00
2019-01-13T08:07:30.089Z,164.00
2019-01-13T08:08:30.078Z,148.00
2019-01-13T08:09:30.147Z,120.00
2019-01-13T08:10:30.363Z,76.00
2019-01-13T08:11:30.047Z,88.00
2019-01-13T08:12:30.036Z,128.00
2019-01-13T08:13:30.034Z,168.00
2019-01-13T08:14:30.026Z,164.00
2019-01-13T08:15:30.045Z,176.00
2019-01-13T08:16:29.995Z,236.00
2019-01-13T08:17:30.265Z,260.00
2019-01-13T08:18:29.974Z,248.00
2019-01-13T08:19:29.976Z,244.00
2019-01-13T08:20:29.961Z,244.00
2019-01-13T08:21:30.010Z,264.00
2019-01-13T08:22:29.934Z,260.00
2019-01-13T08:23:29.923Z,260.00
2019-01-13T08:24:30.194Z,216.00
2019-01-13T08:25:29.906Z,204.00
2019-01-13T08:26:29.893Z,244.00
2019-01-13T08:27:29.950Z,260.00
2019-01-13T08:28:29.873Z,208.00
2019-01-13T08:29:29.865Z,288.00
2019-01-13T08:30:29.851Z,288.00
2019-01-13T08:31:29.842Z,252.00
2019-01-13T08:32:29.844Z,240.00
2019-01-13T08:33:29.856Z,256.00
2019-01-13T08:34:29.819Z,288.00
2019-01-13T08:35:29.799Z,304.00
2019-01-13T08:36:29.790Z,300.00
2019-01-13T08:37:30.142Z,284.00
2019-01-13T08:38:29.769Z,284.00
2019-01-13T08:39:29.807Z,280.00
2019-01-13T08:40:29.749Z,220.00
2019-01-13T08:41:29.742Z,220.00
2019-01-13T08:42:29.738Z,244.00
2019-01-13T08:43:29.731Z,216.00
2019-01-13T08:44:30.148Z,220.00
2019-01-13T08:45:29.741Z,260.00
2019-01-13T08:46:29.687Z,244.00
2019-01-13T08:47:29.681Z,284.00
2019-01-13T08:48:29.664Z,272.00
2019-01-13T08:49:29.657Z,288.00
2019-01-13T08:50:29.644Z,280.00
2019-01-13T08:51:31.675Z,292.00
2019-01-13T08:52:29.628Z,348.00
2019-01-13T08:53:29.612Z,376.00
2019-01-13T08:54:29.605Z,376.00
2019-01-13T08:55:29.592Z,384.00
2019-01-13T08:56:29.586Z,400.00
2019-01-13T08:57:29.953Z,400.00
2019-01-13T08:58:29.853Z,364.00
2019-01-13T08:59:29.552Z,420.00
2019-01-13T09:00:29.542Z,400.00
2019-01-13T09:01:29.531Z,392.00
2019-01-13T09:02:32.269Z,396.00
2019-01-13T09:03:29.888Z,428.00
2019-01-13T09:04:29.517Z,372.00
2019-01-13T09:05:29.985Z,392.00
2019-01-13T09:06:29.491Z,336.00
2019-01-13T09:07:29.470Z,380.00
2019-01-13T09:08:29.502Z,356.00
2019-01-13T09:09:30.187Z,372.00
2019-01-13T09:10:29.464Z,380.00
2019-01-13T09:11:29.431Z,352.00
2019-01-13T09:12:29.705Z,424.00
2019-01-13T09:13:29.408Z,376.00
2019-01-13T09:14:29.436Z,416.00
2019-01-13T09:15:29.454Z,336.00
2019-01-13T09:16:29.378Z,364.00
2019-01-13T09:17:29.368Z,364.00
2019-01-13T09:18:29.355Z,404.00
2019-01-13T09:19:29.654Z,380.00
2019-01-13T09:20:29.338Z,456.00
2019-01-13T09:21:29.378Z,388.00
2019-01-13T09:22:29.322Z,392.00
2019-01-13T09:23:29.303Z,376.00
2019-01-13T09:24:29.294Z,404.00
2019-01-13T09:25:29.284Z,512.00
2019-01-13T09:26:29.585Z,588.00
2019-01-13T09:27:29.309Z,588.00
2019-01-13T09:28:29.254Z,576.00
2019-01-13T09:29:29.262Z,704.00
2019-01-13T09:30:29.233Z,576.00
2019-01-13T09:31:29.223Z,700.00
2019-01-13T09:32:29.212Z,716.00
2019-01-13T09:33:29.651Z,832.00
2019-01-13T09:34:29.193Z,956.00
2019-01-13T09:35:29.191Z,892.00
2019-01-13T09:36:29.174Z,960.00
2019-01-13T09:37:29.163Z,880.00
2019-01-13T09:38:29.156Z,832.00
2019-01-13T09:39:29.186Z,840.00
2019-01-13T09:40:29.413Z,904.00
2019-01-13T09:41:29.124Z,888.00
2019-01-13T09:42:29.111Z,964.00
2019-01-13T09:43:29.113Z,1128.00
2019-01-13T09:44:29.095Z,1052.00
2019-01-13T09:45:29.118Z,932.00
2019-01-13T09:46:29.084Z,732.00
2019-01-13T09:47:29.546Z,660.00
2019-01-13T09:48:29.048Z,524.00
2019-01-13T09:49:29.037Z,520.00
2019-01-13T09:50:29.030Z,512.00
2019-01-13T09:51:29.107Z,520.00
2019-01-13T09:52:29.996Z,484.00
2019-01-13T09:53:28.995Z,472.00
2019-01-13T09:54:29.983Z,476.00
2019-01-13T09:55:28.987Z,544.00
2019-01-13T09:56:28.969Z,492.00
2019-01-13T09:57:29.025Z,568.00
2019-01-13T09:58:28.945Z,580.00
2019-01-13T09:59:29.488Z,696.00
2019-01-13T10:00:29.490Z,740.00
2019-01-13T10:01:31.901Z,864.00
2019-01-13T10:02:29.488Z,792.00
2019-01-13T10:03:31.988Z,876.00
2019-01-13T10:04:28.882Z,796.00
2019-01-13T10:05:29.455Z,768.00
2019-01-13T10:06:29.974Z,772.00
2019-01-13T10:07:29.771Z,864.00
2019-01-13T10:08:29.451Z,1056.00
2019-01-13T10:09:29.991Z,1048.00
2019-01-13T10:10:28.821Z,1176.00
2019-01-13T10:11:28.807Z,1172.00
2019-01-13T10:12:28.796Z,1120.00
2019-01-13T10:13:28.788Z,1228.00
2019-01-13T10:14:29.951Z,1280.00
2019-01-13T10:15:28.805Z,1280.00
2019-01-13T10:16:28.755Z,1216.00
2019-01-13T10:17:28.743Z,1112.00
2019-01-13T10:18:28.734Z,972.00
2019-01-13T10:19:28.731Z,1060.00
2019-01-13T10:20:28.710Z,1028.00
2019-01-13T10:21:30.400Z,992.00
2019-01-13T10:22:28.689Z,1300.00
2019-01-13T10:23:28.681Z,1188.00
2019-01-13T10:24:28.667Z,1344.00
2019-01-13T10:25:28.657Z,1388.00
2019-01-13T10:26:28.644Z,1164.00
2019-01-13T10:27:30.392Z,1232.00
2019-01-13T10:28:29.454Z,1036.00
2019-01-13T10:29:28.613Z,1036.00
2019-01-13T10:30:28.613Z,1140.00
2019-01-13T10:31:28.591Z,1024.00
2019-01-13T10:32:28.611Z,956.00
2019-01-13T10:33:28.686Z,948.00
2019-01-13T10:34:28.559Z,892.00
2019-01-13T10:35:29.067Z,900.00
2019-01-13T10:36:28.542Z,940.00
2019-01-13T10:37:28.527Z,1036.00
2019-01-13T10:38:28.519Z,1136.00
2019-01-13T10:39:28.707Z,1052.00
2019-01-13T10:40:28.501Z,988.00
2019-01-13T10:41:28.489Z,960.00
2019-01-13T10:42:28.758Z,904.00
2019-01-13T10:43:28.465Z,880.00
2019-01-13T10:44:28.457Z,864.00
2019-01-13T10:45:28.607Z,856.00
2019-01-13T10:46:28.434Z,1040.00
2019-01-13T10:47:28.442Z,1156.00
2019-01-13T10:48:28.417Z,1436.00
2019-01-13T10:49:28.869Z,1488.00
2019-01-13T10:50:28.653Z,1560.00
2019-01-13T10:51:28.718Z,1504.00
2019-01-13T10:52:28.663Z,1472.00
2019-01-13T10:53:28.466Z,1380.00
2019-01-13T10:54:28.358Z,1276.00
2019-01-13T10:55:28.345Z,1232.00
2019-01-13T10:56:28.677Z,1156.00
2019-01-13T10:57:29.480Z,1060.00
2019-01-13T10:58:28.305Z,1044.00
2019-01-13T10:59:28.295Z,908.00
2019-01-13T11:00:28.288Z,932.00
2019-01-13T11:01:28.274Z,1100.00
2019-01-13T11:02:28.263Z,1072.00
2019-01-13T11:03:28.854Z,1184.00
2019-01-13T11:04:28.242Z,1080.00
2019-01-13T11:05:28.246Z,1144.00
2019-01-13T11:06:28.225Z,1172.00
2019-01-13T11:07:28.407Z,1280.00
2019-01-13T11:08:28.342Z,1456.00
2019-01-13T11:09:28.448Z,1504.00
2019-01-13T11:10:30.623Z,1372.00
2019-01-13T11:11:28.268Z,1216.00
2019-01-13T11:12:28.162Z,1152.00
2019-01-13T11:13:28.152Z,1236.00
2019-01-13T11:14:28.150Z,1264.00
2019-01-13T11:15:28.174Z,1380.00
2019-01-13T11:16:28.116Z,1520.00
2019-01-13T11:17:28.469Z,1436.00
2019-01-13T11:18:28.110Z,1364.00
2019-01-13T11:19:28.185Z,1224.00
2019-01-13T11:20:28.244Z,1328.00
2019-01-13T11:21:28.417Z,1376.00
2019-01-13T11:22:28.188Z,1432.00
2019-01-13T11:23:28.041Z,1440.00
2019-01-13T11:24:28.366Z,1320.00
2019-01-13T11:25:28.022Z,1252.00
2019-01-13T11:26:28.009Z,1292.00
2019-01-13T11:27:28.047Z,1376.00
2019-01-13T11:28:27.990Z,1268.00
2019-01-13T11:29:32.670Z,1224.00
2019-01-13T11:30:27.972Z,1236.00
2019-01-13T11:31:27.956Z,984.00
2019-01-13T11:32:27.945Z,1100.00
2019-01-13T11:33:27.967Z,940.00
2019-01-13T11:34:28.478Z,964.00
2019-01-13T11:35:28.479Z,1032.00
2019-01-13T11:36:27.924Z,1092.00
2019-01-13T11:37:27.894Z,1104.00
2019-01-13T11:38:27.884Z,1100.00
2019-01-13T11:39:27.922Z,1092.00
2019-01-13T11:40:27.873Z,1020.00
2019-01-13T11:41:27.853Z,1048.00
2019-01-13T11:42:27.842Z,1132.00
2019-01-13T11:43:28.325Z,1032.00
2019-01-13T11:44:27.819Z,1284.00
2019-01-13T11:45:27.847Z,1224.00
2019-01-13T11:46:27.799Z,1208.00
2019-01-13T11:47:27.784Z,1252.00
2019-01-13T11:48:27.851Z,1408.00
2019-01-13T11:49:27.775Z,1240.00
2019-01-13T11:50:27.754Z,1116.00
2019-01-13T11:51:28.099Z,1132.00
2019-01-13T11:52:27.731Z,1128.00
2019-01-13T11:53:27.722Z,1188.00
2019-01-13T11:54:27.713Z,1248.00
2019-01-13T11:55:28.087Z,1208.00
2019-01-13T11:56:27.698Z,1184.00
2019-01-13T11:57:27.909Z,1332.00
2019-01-13T11:58:27.668Z,1376.00
2019-01-13T11:59:27.663Z,1428.00
2019-01-13T12:00:27.704Z,1220.00
2019-01-13T12:01:27.638Z,1288.00
2019-01-13T12:02:32.617Z,1272.00
2019-01-13T12:03:28.984Z,1264.00
2019-01-13T12:04:27.603Z,1252.00
2019-01-13T12:05:27.599Z,1264.00
2019-01-13T12:06:27.582Z,1196.00
2019-01-13T12:07:28.918Z,1224.00
2019-01-13T12:08:27.564Z,1156.00
2019-01-13T12:09:28.154Z,1192.00
2019-01-13T12:10:27.545Z,1236.00
2019-01-13T12:11:27.538Z,1176.00
2019-01-13T12:12:27.519Z,1092.00
2019-01-13T12:13:27.511Z,1180.00
2019-01-13T12:14:27.496Z,1136.00
2019-01-13T12:15:27.528Z,1124.00
2019-01-13T12:16:27.763Z,1144.00
2019-01-13T12:17:27.493Z,996.00
2019-01-13T12:18:27.459Z,908.00
2019-01-13T12:19:27.447Z,904.00
2019-01-13T12:20:27.434Z,932.00
2019-01-13T12:21:27.458Z,892.00
2019-01-13T12:22:27.413Z,1076.00
2019-01-13T12:23:27.677Z,1048.00
2019-01-13T12:24:27.398Z,1108.00
2019-01-13T12:25:27.381Z,1060.00
2019-01-13T12:26:27.369Z,1240.00
2019-01-13T12:27:28.680Z,1528.00
2019-01-13T12:28:27.357Z,1700.00
2019-01-13T12:29:27.339Z,1568.00
2019-01-13T12:30:27.641Z,1324.00
2019-01-13T12:31:27.315Z,1336.00
2019-01-13T12:32:27.304Z,1260.00
2019-01-13T12:33:27.359Z,1200.00
2019-01-13T12:34:27.282Z,1056.00
2019-01-13T12:35:27.275Z,1112.00
2019-01-13T12:36:27.261Z,1116.00
2019-01-13T12:37:27.251Z,1224.00
2019-01-13T12:38:27.250Z,1236.00
2019-01-13T12:39:27.267Z,1080.00
2019-01-13T12:40:27.231Z,1108.00
2019-01-13T12:41:27.208Z,896.00